Time;durP1;ratioP1;P1;durP2;ratioP2;P2;SDS_P1;SDS_P2;PMS_P1;PMS_P2;Temp;Humidity;BMP_temperature;BMP_pressure;BME280_temperature;BME280_humidity;BME280_pressure;Samples;Min_cycle;Max_cycle;Signal;HPM_P1;HPM_P2
2023/08/05 00:00:44;;;;;;;0.10;0.10;;;;;;;29.00;47.58;100234.84;5078807;28;20035;-92
2023/08/05 00:03:10;;;;;;;0.20;0.20;;;;;;;29.07;48.12;100252.47;5079102;28;20023;-92
2023/08/05 00:05:37;;;;;;;0.10;0.10;;;;;;;29.11;48.11;100252.91;5079524;28;20039;-92
2023/08/05 00:08:05;;;;;;;0.20;0.20;;;;;;;29.02;48.29;100249.63;5079868;28;20501;-93
2023/08/05 00:10:31;;;;;;;0.10;0.10;;;;;;;28.88;48.24;100252.44;5079437;28;20047;-91
2023/08/05 00:12:57;;;;;;;0.20;0.20;;;;;;;28.82;49.06;100252.25;5079001;28;20064;-91
2023/08/05 00:15:22;;;;;;;0.10;0.10;;;;;;;28.80;48.78;100250.78;5078809;28;20047;-92
2023/08/05 00:17:48;;;;;;;0.10;0.10;;;;;;;28.79;49.07;100228.66;5079137;28;20054;-91
2023/08/05 00:20:13;;;;;;;0.10;0.10;;;;;;;28.67;49.70;100224.97;5078861;28;20035;-92
2023/08/05 00:22:39;;;;;;;0.10;0.10;;;;;;;28.70;49.62;100240.53;5079090;28;20180;-92
2023/08/05 00:25:04;;;;;;;0.10;0.10;;;;;;;28.68;49.54;100236.44;5079088;28;20034;-92
2023/08/05 00:27:30;;;;;;;0.10;0.10;;;;;;;28.70;49.55;100240.53;5078453;28;20023;-92
2023/08/05 00:29:55;;;;;;;0.20;0.20;;;;;;;28.64;49.76;100233.38;5079035;28;20019;-92
2023/08/05 00:32:21;;;;;;;0.13;0.13;;;;;;;28.65;49.80;100243.00;5079123;28;20386;-93
2023/08/05 00:34:46;;;;;;;0.10;0.10;;;;;;;28.63;50.55;100239.72;5078534;28;20028;-91
2023/08/05 00:37:12;;;;;;;0.10;0.10;;;;;;;28.60;50.92;100240.09;5078695;28;20051;-91
2023/08/05 00:39:37;;;;;;;0.10;0.10;;;;;;;28.58;50.50;100237.66;5078554;28;20061;-90
2023/08/05 00:42:03;;;;;;;0.20;0.20;;;;;;;28.50;50.15;100223.69;5078379;28;20031;-92
2023/08/05 00:44:29;;;;;;;0.20;0.20;;;;;;;28.56;50.53;100234.38;5078719;28;20575;-91
2023/08/05 00:46:54;;;;;;;0.10;0.10;;;;;;;28.64;50.55;100235.22;5078618;28;20481;-92
2023/08/05 00:49:20;;;;;;;0.10;0.10;;;;;;;28.57;51.17;100236.00;5078451;28;20096;-91
2023/08/05 00:51:46;;;;;;;0.10;0.10;;;;;;;28.44;51.89;100227.19;5078596;28;20522;-92
2023/08/05 00:54:11;;;;;;;0.10;0.10;;;;;;;28.39;51.50;100230.44;5078538;28;20042;-91
2023/08/05 00:56:36;;;;;;;0.10;0.10;;;;;;;28.52;51.16;100233.16;5078068;28;20061;-93
2023/08/05 00:59:02;;;;;;;0.20;0.20;;;;;;;28.54;51.49;100228.44;5078293;28;20032;-93
2023/08/05 01:01:27;;;;;;;0.20;0.20;;;;;;;28.51;50.48;100235.97;5078188;28;20027;-91
2023/08/05 01:03:53;;;;;;;0.10;0.10;;;;;;;28.49;51.08;100238.03;5095033;28;20477;-92
2023/08/05 01:06:18;;;;;;;0.10;0.10;;;;;;;28.52;49.81;100241.13;5078220;28;20027;-92
2023/08/05 01:08:44;;;;;;;0.10;0.10;;;;;;;28.45;49.36;100231.47;5078003;28;20511;-91
2023/08/05 01:11:11;;;;;;;0.10;0.10;;;;;;;28.48;49.19;100231.06;5077877;28;20055;-90
2023/08/05 01:13:36;;;;;;;0.10;0.10;;;;;;;28.50;50.43;100239.66;5077560;28;20031;-91
2023/08/05 01:16:02;;;;;;;0.20;0.20;;;;;;;28.58;49.67;100239.47;5078041;28;20454;-91
2023/08/05 01:18:27;;;;;;;0.10;0.10;;;;;;;28.50;49.48;100223.69;5077968;28;20024;-91
2023/08/05 01:20:54;;;;;;;0.10;0.10;;;;;;;28.48;48.85;100223.09;5077885;28;20028;-93
2023/08/05 01:23:26;;;;;;;0.10;0.10;;;;;;;28.51;49.14;100217.34;5077838;28;20023;-92
2023/08/05 01:25:51;;;;;;;0.10;0.10;;;;;;;28.39;48.73;100209.16;5094299;28;20032;-93
2023/08/05 01:28:17;;;;;;;0.10;0.10;;;;;;;28.51;48.77;100225.34;5077977;28;20538;-91
2023/08/05 01:30:42;;;;;;;0.20;0.20;;;;;;;28.46;48.86;100209.16;5077540;28;20032;-91
2023/08/05 01:33:08;;;;;;;0.10;0.10;;;;;;;28.50;49.47;100213.88;5077651;28;20093;-90
2023/08/05 01:35:33;;;;;;;0.10;0.10;;;;;;;28.54;50.06;100209.00;5077814;28;20039;-91
2023/08/05 01:37:58;;;;;;;0.20;0.20;;;;;;;28.46;50.37;100214.50;5077886;28;20034;-90
2023/08/05 01:40:28;;;;;;;0.15;0.15;;;;;;;28.47;49.85;100210.81;5093981;28;20031;-92
2023/08/05 01:42:56;;;;;;;0.10;0.10;;;;;;;28.36;49.15;100211.41;5078754;28;20019;-90
2023/08/05 01:45:21;;;;;;;0.10;0.10;;;;;;;28.40;48.77;100207.31;5077684;28;20042;-92
2023/08/05 01:47:47;;;;;;;0.10;0.10;;;;;;;28.41;48.72;100214.25;5094318;28;20027;-92
2023/08/05 01:50:12;;;;;;;0.20;0.20;;;;;;;28.41;48.86;100208.94;5094373;28;20035;-92
2023/08/05 01:52:38;;;;;;;0.20;0.20;;;;;;;28.44;48.46;100213.88;5077874;28;20020;-91
2023/08/05 01:55:03;;;;;;;0.20;0.20;;;;;;;28.40;48.13;100224.09;5077196;28;20035;-90
2023/08/05 01:57:29;;;;;;;0.10;0.10;;;;;;;28.41;48.23;100230.22;5077425;28;20503;-91
2023/08/05 01:59:54;;;;;;;0.10;0.10;;;;;;;28.38;48.18;100226.13;5077128;28;20096;-91
2023/08/05 02:02:20;;;;;;;0.10;0.10;;;;;;;28.40;48.01;100223.28;5077450;28;20031;-91
2023/08/05 02:04:45;;;;;;;0.20;0.20;;;;;;;28.31;47.63;100214.66;5077412;28;20477;-90
2023/08/05 02:07:12;;;;;;;0.10;0.10;;;;;;;28.34;47.20;100224.09;5077305;28;20081;-91
2023/08/05 02:09:37;;;;;;;0.10;0.10;;;;;;;28.27;47.54;100230.16;5077041;28;20027;-93
2023/08/05 02:12:03;;;;;;;0.20;0.20;;;;;;;28.27;47.76;100238.16;5077200;28;20083;-91
2023/08/05 02:14:28;;;;;;;0.20;0.20;;;;;;;28.27;48.02;100232.81;5077199;28;20061;-91
2023/08/05 02:16:54;;;;;;;0.10;0.10;;;;;;;28.28;47.80;100241.66;5077150;28;20019;-91
2023/08/05 02:19:19;;;;;;;0.10;0.10;;;;;;;28.21;47.88;100244.25;5077021;28;20032;-92
2023/08/05 02:21:44;;;;;;;0.10;0.10;;;;;;;28.26;47.39;100257.78;5076869;28;20034;-90
2023/08/05 02:24:11;;;;;;;0.20;0.20;;;;;;;28.16;47.20;100259.19;5076985;28;20489;-95
2023/08/05 02:26:37;;;;;;;0.10;0.10;;;;;;;28.15;47.50;100262.84;5080584;28;20024;-91
2023/08/05 02:29:02;;;;;;;0.20;0.20;;;;;;;28.15;47.50;100263.69;5081389;28;20024;-90
2023/08/05 02:31:28;;;;;;;0.10;0.10;;;;;;;28.20;47.38;100269.22;5081117;28;20076;-91
2023/08/05 02:33:53;;;;;;;0.10;0.10;;;;;;;28.12;46.88;100272.06;5081124;28;20488;-91
2023/08/05 02:36:18;;;;;;;0.10;0.10;;;;;;;28.17;47.13;100282.91;5081058;28;20030;-93
2023/08/05 02:38:44;;;;;;;0.20;0.20;;;;;;;28.06;47.19;100275.50;5097547;28;20028;-92
2023/08/05 02:41:09;;;;;;;0.10;0.10;;;;;;;28.02;47.26;100276.91;5080936;28;20020;-90
2023/08/05 02:43:35;;;;;;;0.20;0.20;;;;;;;28.10;46.70;100276.72;5080910;28;20023;-93
2023/08/05 02:46:00;;;;;;;0.10;0.10;;;;;;;28.04;47.13;100284.69;5080937;28;20032;-92
2023/08/05 02:48:26;;;;;;;0.10;0.10;;;;;;;27.95;46.98;100273.41;5097682;28;20038;-89
2023/08/05 02:50:52;;;;;;;0.20;0.20;;;;;;;27.90;47.29;100284.59;5080608;28;20047;-91
2023/08/05 02:53:17;;;;;;;0.20;0.20;;;;;;;27.74;47.66;100276.97;5080615;28;20061;-92
2023/08/05 02:55:43;;;;;;;0.20;0.20;;;;;;;27.79;47.57;100279.84;5080618;28;20027;-92
2023/08/05 02:58:08;;;;;;;0.10;0.10;;;;;;;27.78;47.88;100283.53;5080647;28;20031;-91
2023/08/05 03:00:34;;;;;;;0.10;0.10;;;;;;;27.74;48.00;100270.84;5080446;28;20163;-91
2023/08/05 03:02:59;;;;;;;0.20;0.20;;;;;;;27.68;47.43;100278.56;5080516;28;20051;-93
2023/08/05 03:05:25;;;;;;;0.10;0.10;;;;;;;27.74;47.52;100292.09;5080382;28;20062;-91
2023/08/05 03:07:50;;;;;;;0.20;0.20;;;;;;;27.73;47.45;100285.97;5080522;28;20031;-91
2023/08/05 03:10:16;;;;;;;0.10;0.10;;;;;;;27.71;47.41;100299.41;5097239;28;20044;-93
2023/08/05 03:12:41;;;;;;;0.20;0.20;;;;;;;27.69;47.88;100312.09;5097380;28;20020;-90
2023/08/05 03:15:07;;;;;;;0.15;0.15;;;;;;;27.66;47.57;100314.31;5080242;28;20485;-91
2023/08/05 03:17:32;;;;;;;0.10;0.10;;;;;;;27.52;47.49;100297.41;5080165;28;20092;-90
2023/08/05 03:19:58;;;;;;;0.20;0.20;;;;;;;27.61;47.84;100308.72;5080152;28;20542;-92
2023/08/05 03:22:23;;;;;;;0.10;0.10;;;;;;;27.51;47.88;100306.41;5079990;28;20034;-91
2023/08/05 03:24:49;;;;;;;0.10;0.10;;;;;;;27.52;47.36;100316.00;5080018;28;20066;-93
2023/08/05 03:27:14;;;;;;;0.10;0.10;;;;;;;27.56;47.37;100322.59;5080159;28;20447;-93
2023/08/05 03:29:40;;;;;;;0.10;0.10;;;;;;;27.58;47.43;100335.69;5079952;28;20039;-90
2023/08/05 03:32:05;;;;;;;0.10;0.10;;;;;;;27.49;47.59;100337.66;5096907;28;20027;-90
2023/08/05 03:34:31;;;;;;;0.15;0.15;;;;;;;27.55;47.99;100336.06;5079784;28;20508;-92
2023/08/05 03:36:56;;;;;;;0.10;0.10;;;;;;;27.55;47.37;100347.53;5079127;28;20039;-92
2023/08/05 03:39:22;;;;;;;0.10;0.10;;;;;;;27.53;47.31;100346.91;5079368;28;20489;-91
2023/08/05 03:41:47;;;;;;;0.20;0.20;;;;;;;27.55;47.16;100347.53;5080039;28;20023;-93
2023/08/05 03:44:13;;;;;;;0.20;0.20;;;;;;;27.52;46.91;100341.75;5080016;28;20122;-90
2023/08/05 03:46:39;;;;;;;0.13;0.13;;;;;;;27.59;47.36;100351.44;5079907;28;20032;-92
2023/08/05 03:49:04;;;;;;;0.20;0.20;;;;;;;27.51;47.34;100345.44;5079738;28;20470;-92
2023/08/05 03:51:30;;;;;;;0.10;0.10;;;;;;;27.46;47.63;100343.38;5079520;28;20063;-91
2023/08/05 03:53:56;;;;;;;0.10;0.10;;;;;;;27.49;47.43;100342.16;5079835;28;20514;-92
2023/08/05 03:56:24;;;;;;;0.10;0.10;;;;;;;27.54;47.58;100351.19;5079855;28;20023;-93
2023/08/05 03:58:51;;;;;;;0.10;0.10;;;;;;;27.55;47.02;100347.53;5080188;28;20110;-92
2023/08/05 04:01:17;;;;;;;0.10;0.10;;;;;;;27.54;47.01;100345.88;5079928;28;20054;-91
2023/08/05 04:03:43;;;;;;;0.10;0.10;;;;;;;27.53;47.05;100340.75;5079548;28;20066;-92
2023/08/05 04:06:11;;;;;;;0.20;0.20;;;;;;;27.58;47.56;100357.75;5079574;28;20031;-93
2023/08/05 04:08:38;;;;;;;0.10;0.10;;;;;;;27.55;47.15;100347.53;5080025;28;20051;-92
2023/08/05 04:11:05;;;;;;;0.10;0.10;;;;;;;27.55;47.46;100346.69;5079208;28;20047;-91
2023/08/05 04:13:31;;;;;;;0.10;0.10;;;;;;;27.51;47.24;100348.91;5079510;28;20031;-93
2023/08/05 04:15:59;;;;;;;0.10;0.10;;;;;;;27.54;47.03;100355.69;5063738;28;20056;-94
2023/08/05 04:18:24;;;;;;;0.20;0.20;;;;;;;27.55;47.27;100357.34;5039906;28;20546;-94
2023/08/05 04:20:51;;;;;;;0.15;0.15;;;;;;;27.47;47.47;100350.31;5055399;28;20028;-91
2023/08/05 04:23:21;;;;;;;0.10;0.10;;;;;;;27.40;47.89;100352.91;5039330;28;20414;-92
2023/08/05 04:25:47;;;;;;;0.20;0.20;;;;;;;27.32;48.32;100331.78;5056243;28;20032;-91
2023/08/05 04:28:13;;;;;;;0.10;0.10;;;;;;;27.39;48.21;100342.47;5039118;28;20121;-93
2023/08/05 04:30:40;;;;;;;0.20;0.20;;;;;;;27.38;48.30;100354.94;5039300;28;20028;-92
2023/08/05 04:33:05;;;;;;;0.20;0.20;;;;;;;27.54;47.86;100353.84;5039396;28;20035;-92
2023/08/05 04:35:31;;;;;;;0.20;0.20;;;;;;;27.49;47.66;100356.25;5038705;28;20115;-91
2023/08/05 04:37:56;;;;;;;0.20;0.20;;;;;;;27.37;47.14;100363.91;5038914;28;20029;-92
2023/08/05 04:40:22;;;;;;;0.20;0.20;;;;;;;27.38;47.12;100372.72;5038865;28;20036;-92
2023/08/05 04:42:48;;;;;;;0.10;0.10;;;;;;;27.27;47.42;100365.25;5055463;28;20032;-91
2023/08/05 04:45:13;;;;;;;0.10;0.10;;;;;;;27.31;47.96;100372.63;5055380;28;20136;-92
2023/08/05 04:47:40;;;;;;;0.10;0.10;;;;;;;27.27;47.76;100359.94;5055298;28;20147;-92
2023/08/05 04:50:06;;;;;;;0.20;0.20;;;;;;;27.19;48.63;100360.88;5054211;28;20068;-93
2023/08/05 04:52:31;;;;;;;0.10;0.10;;;;;;;27.28;48.31;100366.91;5055093;28;20085;-93
2023/08/05 04:54:57;;;;;;;0.10;0.10;;;;;;;27.24;48.31;100371.78;5038600;28;20032;-91
2023/08/05 04:57:22;;;;;;;0.10;0.10;;;;;;;27.07;47.59;100338.50;5055266;28;20053;-90
2023/08/05 04:59:48;;;;;;;0.10;0.10;;;;;;;27.22;47.08;100378.25;5055146;28;20478;-91
2023/08/05 05:02:13;;;;;;;0.10;0.10;;;;;;;27.18;47.47;100379.66;5054924;28;20033;-91
2023/08/05 05:04:39;;;;;;;0.10;0.10;;;;;;;27.24;47.09;100377.09;5054516;28;20123;-91
2023/08/05 05:07:04;;;;;;;0.10;0.10;;;;;;;27.22;47.12;100372.94;5055051;28;20036;-92
2023/08/05 05:09:30;;;;;;;0.10;0.10;;;;;;;27.30;47.05;100372.84;5054734;28;20024;-92
2023/08/05 05:11:56;;;;;;;0.15;0.15;;;;;;;27.34;46.98;100385.56;5038227;28;20185;-90
2023/08/05 05:14:22;;;;;;;0.20;0.20;;;;;;;27.28;46.55;100383.66;5055017;28;20028;-90
2023/08/05 05:16:47;;;;;;;0.20;0.20;;;;;;;27.29;46.13;100387.94;5055003;28;20557;-91
2023/08/05 05:19:13;;;;;;;0.10;0.10;;;;;;;27.23;45.96;100386.03;5054175;28;20036;-91
2023/08/05 05:21:38;;;;;;;0.20;0.20;;;;;;;27.27;45.18;100402.44;5054603;28;20089;-91
2023/08/05 05:24:04;;;;;;;0.20;0.20;;;;;;;27.23;44.98;100409.13;5054574;28;20040;-91
2023/08/05 05:26:29;;;;;;;0.15;0.15;;;;;;;27.28;45.58;100410.22;5054696;28;20021;-91
2023/08/05 05:28:55;;;;;;;0.10;0.10;;;;;;;27.36;44.63;100417.25;5054364;28;20055;-92
2023/08/05 05:31:20;;;;;;;0.10;0.10;;;;;;;27.18;44.51;100398.25;5037708;28;20032;-91
2023/08/05 05:33:47;;;;;;;0.10;0.10;;;;;;;27.21;44.55;100397.88;5054371;28;20032;-92
2023/08/05 05:36:13;;;;;;;0.10;0.10;;;;;;;27.17;44.74;100393.94;5054750;28;20031;-91
2023/08/05 05:38:38;;;;;;;0.20;0.20;;;;;;;27.20;45.13;100401.53;5054247;28;20020;-92
2023/08/05 05:41:04;;;;;;;0.10;0.10;;;;;;;27.25;45.47;100393.84;5054325;28;20090;-92
2023/08/05 05:43:29;;;;;;;0.10;0.10;;;;;;;27.28;44.65;100404.06;5037480;28;20027;-92
2023/08/05 05:45:55;;;;;;;0.20;0.20;;;;;;;27.12;44.35;100376.75;5053918;28;20044;-93
2023/08/05 05:48:20;;;;;;;0.20;0.20;;;;;;;27.15;45.00;100405.59;5037260;28;20085;-92
2023/08/05 05:50:46;;;;;;;0.13;0.13;;;;;;;27.12;44.97;100413.91;5037554;28;20036;-92
2023/08/05 05:53:13;;;;;;;0.10;0.10;;;;;;;27.17;45.30;100399.28;5054166;28;20410;-93
2023/08/05 05:55:42;;;;;;;0.20;0.20;;;;;;;27.26;45.16;100403.44;5038090;28;20093;-93
2023/08/05 05:58:08;;;;;;;0.20;0.20;;;;;;;27.39;44.93;100400.91;5037535;28;20118;-92
2023/08/05 06:00:36;;;;;;;0.10;0.10;;;;;;;27.50;44.73;100403.06;5053665;28;20532;-91
2023/08/05 06:03:02;;;;;;;0.20;0.20;;;;;;;27.53;44.47;100380.59;5067458;28;20054;-93
2023/08/05 06:05:27;;;;;;;0.10;0.10;;;;;;;27.67;44.23;100388.53;5077443;28;20058;-91
2023/08/05 06:07:53;;;;;;;0.20;0.20;;;;;;;27.63;43.96;100381.94;5077679;28;20027;-92
2023/08/05 06:10:19;;;;;;;0.10;0.10;;;;;;;27.63;44.60;100403.19;5077482;28;20079;-93
2023/08/05 06:12:44;;;;;;;0.20;0.20;;;;;;;27.60;44.67;100379.63;5077278;28;20404;-92
2023/08/05 06:15:10;;;;;;;0.10;0.10;;;;;;;27.64;44.80;100375.59;5077178;28;20028;-93
2023/08/05 06:17:36;;;;;;;0.17;0.17;;;;;;;27.68;44.15;100379.53;5076940;28;20034;-90
2023/08/05 06:20:02;;;;;;;0.20;0.20;;;;;;;27.71;43.81;100373.81;5077169;28;20027;-93
2023/08/05 06:22:28;;;;;;;0.20;0.20;;;;;;;27.86;44.20;100365.78;5077612;28;20098;-91
2023/08/05 06:24:53;;;;;;;0.13;0.13;;;;;;;28.00;44.04;100367.50;5077174;28;20032;-92
2023/08/05 06:27:18;;;;;;;0.20;0.20;;;;;;;28.09;43.11;100362.84;5077044;28;21015;-92
2023/08/05 06:29:44;;;;;;;0.20;0.20;;;;;;;28.14;43.30;100357.78;5077087;28;20031;-90
2023/08/05 06:32:09;;;;;;;0.20;0.20;;;;;;;28.11;43.55;100342.19;5093701;28;20065;-90
2023/08/05 06:34:35;;;;;;;0.20;0.20;;;;;;;28.24;43.17;100352.94;5077114;28;20554;-90
2023/08/05 06:37:00;;;;;;;0.20;0.20;;;;;;;28.22;43.18;100348.78;5076855;28;20032;-91
2023/08/05 06:39:26;;;;;;;0.20;0.20;;;;;;;28.33;43.57;100350.13;5093717;28;20028;-91
2023/08/05 06:41:51;;;;;;;0.20;0.20;;;;;;;28.45;43.63;100364.50;5077220;28;20024;-91
2023/08/05 06:44:17;;;;;;;0.20;0.20;;;;;;;28.50;42.90;100367.38;5076816;28;20034;-92
2023/08/05 06:46:42;;;;;;;0.20;0.20;;;;;;;28.62;42.41;100368.50;5076752;28;20105;-92
2023/08/05 06:49:09;;;;;;;0.20;0.20;;;;;;;28.66;41.97;100367.06;5077121;28;20405;-92
2023/08/05 06:51:35;;;;;;;0.20;0.20;;;;;;;28.78;41.78;100368.13;5077199;28;20088;-91
2023/08/05 06:54:00;;;;;;;0.20;0.20;;;;;;;28.94;42.67;100369.63;5076928;28;20583;-92
2023/08/05 06:56:25;;;;;;;0.20;0.20;;;;;;;29.08;42.43;100370.47;5077407;28;20051;-91
2023/08/05 06:58:51;;;;;;;0.20;0.20;;;;;;;29.03;41.91;100367.63;5076913;28;20440;-91
2023/08/05 07:01:16;;;;;;;0.20;0.20;;;;;;;29.03;42.00;100354.31;5076879;28;20062;-92
2023/08/05 07:03:44;;;;;;;0.20;0.20;;;;;;;29.08;41.67;100351.84;5093626;28;20066;-92
2023/08/05 07:06:09;;;;;;;0.20;0.20;;;;;;;29.22;41.45;100356.19;5077306;28;20477;-90
2023/08/05 07:08:35;;;;;;;0.10;0.10;;;;;;;29.17;41.83;100353.28;5076523;28;20032;-92
2023/08/05 07:11:00;;;;;;;0.20;0.20;;;;;;;29.26;41.52;100335.25;5076532;28;20055;-92
2023/08/05 07:13:26;;;;;;;0.20;0.20;;;;;;;29.35;41.66;100342.84;5079399;28;20053;-91
2023/08/05 07:15:58;;;;;;;0.20;0.20;;;;;;;29.38;41.09;100339.78;5080313;28;20031;-92
2023/08/05 07:18:23;;;;;;;0.20;0.20;;;;;;;29.42;40.55;100332.22;5080435;28;20515;-92
2023/08/05 07:20:50;;;;;;;0.20;0.20;;;;;;;29.37;40.64;100348.78;5080177;28;20027;-92
2023/08/05 07:23:15;;;;;;;0.20;0.20;;;;;;;29.56;41.46;100339.19;5080296;28;20031;-91
2023/08/05 07:25:41;;;;;;;0.20;0.20;;;;;;;29.62;41.17;100340.22;5080103;28;20129;-91
2023/08/05 07:28:06;;;;;;;0.20;0.20;;;;;;;29.67;40.80;100329.75;5080095;28;20543;-92
2023/08/05 07:30:32;;;;;;;0.20;0.20;;;;;;;29.64;40.95;100327.50;5080193;28;20080;-91
2023/08/05 07:32:57;;;;;;;0.20;0.20;;;;;;;29.75;41.11;100318.06;5080087;28;20059;-90
2023/08/05 07:35:27;;;;;;;0.20;0.20;;;;;;;29.89;40.64;100320.50;5080077;28;20031;-91
2023/08/05 07:37:53;;;;;;;0.20;0.20;;;;;;;29.87;40.84;100311.88;5080434;28;20466;-92
2023/08/05 07:40:18;;;;;;;0.20;0.20;;;;;;;30.02;40.86;100310.81;5096777;28;20024;-91
2023/08/05 07:42:45;;;;;;;0.20;0.20;;;;;;;30.18;40.58;100315.72;5096780;28;20027;-90
2023/08/05 07:45:16;;;;;;;0.20;0.20;;;;;;;30.21;40.23;100312.66;5096748;28;20032;-92
2023/08/05 07:47:43;;;;;;;0.20;0.20;;;;;;;30.34;40.13;100323.25;5081184;28;20023;-91
2023/08/05 07:50:10;;;;;;;0.20;0.20;;;;;;;30.38;39.95;100320.97;5080256;28;20122;-91
2023/08/05 07:52:39;;;;;;;0.20;0.20;;;;;;;30.52;39.58;100320.72;5080235;28;20084;-90
2023/08/05 07:55:04;;;;;;;0.20;0.20;;;;;;;30.54;39.73;100317.84;5080290;28;20039;-93
2023/08/05 07:57:30;;;;;;;0.20;0.20;;;;;;;30.64;40.05;100318.22;5079597;28;20027;-90
2023/08/05 07:59:56;;;;;;;0.20;0.20;;;;;;;30.76;39.87;100321.03;5079466;28;20033;-90
2023/08/05 08:02:22;;;;;;;0.20;0.20;;;;;;;30.84;39.59;100318.09;5079709;28;20070;-91
2023/08/05 08:04:49;;;;;;;0.20;0.20;;;;;;;30.86;38.38;100316.03;5079431;28;20027;-92
2023/08/05 08:07:14;;;;;;;0.20;0.20;;;;;;;30.87;38.98;100315.00;5079872;28;20416;-92
2023/08/05 08:09:40;;;;;;;0.20;0.20;;;;;;;31.08;39.67;100308.50;5079625;28;20028;-91
2023/08/05 08:12:06;;;;;;;0.20;0.20;;;;;;;31.20;39.09;100305.94;5079182;28;20055;-93
2023/08/05 08:14:31;;;;;;;0.20;0.20;;;;;;;31.34;38.62;100308.31;5079249;28;20031;-91
2023/08/05 08:16:58;;;;;;;0.20;0.20;;;;;;;31.35;37.83;100314.47;5079486;28;20031;-91
2023/08/05 08:19:24;;;;;;;0.20;0.20;;;;;;;31.33;38.38;100309.34;5079856;28;20079;-94
2023/08/05 08:21:50;;;;;;;0.20;0.20;;;;;;;31.34;39.13;100312.84;5079551;28;20028;-91
2023/08/05 08:24:15;;;;;;;0.20;0.20;;;;;;;31.31;38.19;100313.28;5079031;28;20032;-93
2023/08/05 08:26:41;;;;;;;0.20;0.20;;;;;;;31.46;37.82;100316.44;5079241;28;20032;-91
2023/08/05 08:29:06;;;;;;;0.20;0.20;;;;;;;31.48;37.87;100327.75;5079607;28;20061;-92
2023/08/05 08:31:33;;;;;;;0.20;0.20;;;;;;;31.60;38.28;100309.13;5079012;28;20034;-92
2023/08/05 08:33:59;;;;;;;0.20;0.20;;;;;;;31.77;38.68;100317.44;5096440;28;20027;-92
2023/08/05 08:36:25;;;;;;;0.20;0.20;;;;;;;31.65;38.05;100302.06;5079270;28;20646;-92
2023/08/05 08:38:50;;;;;;;0.20;0.20;;;;;;;31.54;38.84;100286.75;5078885;28;20047;-93
2023/08/05 08:41:15;;;;;;;0.20;0.20;;;;;;;31.82;38.34;100314.91;5079591;28;20065;-93
2023/08/05 08:43:42;;;;;;;0.20;0.20;;;;;;;31.93;37.82;100306.13;5095779;28;20035;-92
2023/08/05 08:46:08;;;;;;;0.20;0.20;;;;;;;32.00;37.21;100304.22;5079885;28;20027;-91
2023/08/05 08:48:36;;;;;;;0.20;0.20;;;;;;;32.00;37.93;100295.38;5098729;28;20030;-93
2023/08/05 08:51:01;;;;;;;0.20;0.20;;;;;;;32.15;38.13;100312.69;5079977;28;20492;-92
2023/08/05 08:53:27;;;;;;;0.20;0.20;;;;;;;32.15;37.63;100299.31;5079447;28;20024;-93
2023/08/05 08:55:53;;;;;;;0.20;0.20;;;;;;;32.15;38.02;100303.81;5079233;28;20118;-93
2023/08/05 08:58:18;;;;;;;0.20;0.20;;;;;;;31.96;37.70;100286.97;5079381;28;20458;-92
2023/08/05 09:00:44;;;;;;;0.20;0.20;;;;;;;32.15;37.28;100311.84;5079118;28;20074;-94
2023/08/05 09:03:10;;;;;;;0.20;0.20;;;;;;;32.29;37.97;100304.50;5079193;28;20027;-94
2023/08/05 09:05:44;;;;;;;0.20;0.20;;;;;;;32.42;37.00;100274.91;5079149;28;20031;-94
2023/08/05 09:08:10;;;;;;;0.20;0.20;;;;;;;32.70;36.65;100293.06;5080228;28;20023;-93
2023/08/05 09:10:37;;;;;;;0.20;0.20;;;;;;;32.62;36.80;100288.00;5079471;28;20108;-93
2023/08/05 09:13:03;;;;;;;0.20;0.20;;;;;;;32.60;36.91;100290.94;5080007;28;20034;-92
2023/08/05 09:15:38;;;;;;;0.20;0.20;;;;;;;32.59;37.27;100288.47;5095688;28;20108;-93
2023/08/05 09:18:05;;;;;;;0.20;0.20;;;;;;;32.64;36.68;100286.72;5079025;28;20039;-92
2023/08/05 09:20:40;;;;;;;0.20;0.20;;;;;;;32.79;36.87;100279.09;5095562;28;20031;-93
2023/08/05 09:23:07;;;;;;;0.20;0.20;;;;;;;32.82;37.50;100272.47;5079110;28;20489;-94
2023/08/05 09:25:33;;;;;;;0.20;0.20;;;;;;;32.95;36.78;100287.56;5095761;28;20028;-94
2023/08/05 09:28:00;;;;;;;0.20;0.20;;;;;;;32.87;36.95;100277.19;5078908;28;20031;-92
2023/08/05 09:30:27;;;;;;;0.20;0.20;;;;;;;33.15;36.39;100265.81;5079268;28;20489;-93
2023/08/05 09:32:52;;;;;;;0.20;0.20;;;;;;;33.23;36.53;100265.44;5079387;28;20024;-91
2023/08/05 09:35:24;;;;;;;0.20;0.20;;;;;;;33.32;35.90;100264.88;5079406;28;20046;-93
2023/08/05 09:37:51;;;;;;;0.20;0.20;;;;;;;33.29;36.08;100257.31;5079352;28;20035;-92
2023/08/05 09:40:18;;;;;;;0.20;0.20;;;;;;;33.44;35.77;100248.03;5079721;28;20027;-94
2023/08/05 09:42:47;;;;;;;0.20;0.20;;;;;;;33.32;35.73;100239.94;5079762;28;20023;-93
2023/08/05 09:45:15;;;;;;;0.20;0.20;;;;;;;33.43;36.16;100230.28;5079732;28;20031;-93
2023/08/05 09:47:42;;;;;;;0.20;0.20;;;;;;;33.31;35.24;100220.34;5079806;28;20099;-94
2023/08/05 09:50:08;;;;;;;0.20;0.20;;;;;;;33.42;36.26;100210.69;5079675;28;20024;-93
2023/08/05 09:52:34;;;;;;;0.20;0.20;;;;;;;33.77;35.91;100220.56;5079173;28;20024;-94
2023/08/05 09:55:00;;;;;;;0.20;0.20;;;;;;;33.94;35.18;100222.28;5078467;28;20027;-94
2023/08/05 09:57:25;;;;;;;0.20;0.20;;;;;;;34.08;34.96;100228.19;5095103;28;20046;-93
2023/08/05 09:59:53;;;;;;;0.20;0.20;;;;;;;33.94;34.78;100216.94;5078369;28;20031;-93
2023/08/05 10:02:22;;;;;;;0.20;0.20;;;;;;;34.28;34.85;100224.25;5078739;28;20020;-93
2023/08/05 10:04:48;;;;;;;0.30;0.30;;;;;;;34.34;34.01;100215.25;5078916;28;20030;-94
2023/08/05 10:07:16;;;;;;;0.30;0.30;;;;;;;34.35;34.58;100217.69;5078894;28;20031;-92
2023/08/05 10:09:41;;;;;;;0.30;0.30;;;;;;;34.50;35.00;100204.53;5094816;28;20035;-93
2023/08/05 10:12:09;;;;;;;0.30;0.30;;;;;;;34.63;33.90;100203.44;5078034;28;20428;-93
2023/08/05 10:14:35;;;;;;;0.28;0.28;;;;;;;34.38;33.89;100195.75;5078854;28;20099;-92
2023/08/05 10:17:00;;;;;;;0.20;0.20;;;;;;;34.38;34.15;100206.50;5078268;28;20054;-92
2023/08/05 10:19:28;;;;;;;0.20;0.20;;;;;;;34.30;34.94;100197.97;5078070;28;20035;-93
2023/08/05 10:22:03;;;;;;;0.20;0.20;;;;;;;34.59;34.80;100201.47;5095082;28;20093;-95
2023/08/05 10:24:51;;;;;;;0.20;0.20;;;;;;;34.72;33.75;100206.53;5079418;28;20023;-93
2023/08/05 10:27:16;;;;;;;0.30;0.30;;;;;;;34.76;34.04;100203.09;5098425;28;20111;-93
2023/08/05 10:29:52;;;;;;;0.30;0.30;;;;;;;34.82;33.88;100212.06;5078645;28;20081;-94
2023/08/05 10:32:17;;;;;;;0.30;0.30;;;;;;;34.93;33.96;100208.53;5079993;28;20027;-94
2023/08/05 10:34:43;;;;;;;0.30;0.30;;;;;;;35.01;33.86;100210.81;5078031;28;20377;-93
2023/08/05 10:37:08;;;;;;;0.30;0.30;;;;;;;35.04;33.39;100196.84;5079728;28;20019;-93
2023/08/05 10:39:40;;;;;;;0.30;0.30;;;;;;;35.01;33.48;100196.56;5080079;28;20097;-93
2023/08/05 10:42:19;;;;;;;0.25;0.25;;;;;;;35.26;33.68;100194.22;5112727;28;20115;-93
2023/08/05 10:44:44;;;;;;;0.30;0.30;;;;;;;35.35;33.36;100191.91;5096611;28;20028;-94
2023/08/05 10:47:22;;;;;;;0.20;0.20;;;;;;;35.50;33.35;100191.34;5081624;28;20553;-95
2023/08/05 10:49:50;;;;;;;0.25;0.25;;;;;;;35.57;32.71;100194.63;5085294;28;20027;-94
2023/08/05 10:52:20;;;;;;;0.30;0.30;;;;;;;35.38;33.09;100172.59;5100605;28;20027;-94
2023/08/05 10:54:46;;;;;;;0.20;0.20;;;;;;;35.13;32.92;100142.69;5086790;28;20036;-93
2023/08/05 10:57:30;;;;;;;0.30;0.30;;;;;;;35.40;33.18;100161.59;5086802;28;20039;-94
2023/08/05 11:00:02;;;;;;;0.20;0.20;;;;;;;35.58;32.17;100175.56;5085693;28;20069;-94
2023/08/05 11:02:28;;;;;;;0.30;0.30;;;;;;;35.74;32.66;100178.44;5084878;28;20058;-94
2023/08/05 11:05:09;;;;;;;0.30;0.30;;;;;;;35.74;32.70;100165.00;5101046;28;20031;-94
2023/08/05 11:07:38;;;;;;;0.30;0.30;;;;;;;35.95;32.96;100177.63;5082171;28;20027;-95
2023/08/05 11:10:14;;;;;;;0.30;0.30;;;;;;;36.11;31.97;100174.03;5085780;28;20036;-93
2023/08/05 11:12:39;;;;;;;0.30;0.30;;;;;;;36.14;31.32;100160.06;5086793;28;20036;-93
2023/08/05 11:15:05;;;;;;;0.30;0.30;;;;;;;36.13;31.08;100163.81;5084429;28;20040;-92
2023/08/05 11:17:31;;;;;;;0.30;0.30;;;;;;;36.11;31.23;100165.97;5085939;28;20030;-94
2023/08/05 11:19:58;;;;;;;0.30;0.30;;;;;;;36.11;31.47;100165.97;5084558;28;20032;-92